<?xml version='1.0' encoding='UTF-8'?><gpx version="1.1" creator="JPX - https://github.com/jenetics/jpx" xmlns="http://www.topografix.com/GPX/1/1"><trk><trkseg><trkpt lat="43.344647649171854" lon="10.753548278871637"><ele>55.4</ele><time>2026-04-18T12:23:16Z</time></trkpt><trkpt lat="43.344590204863955" lon="10.753498932612214"><ele>55.8</ele><time>2026-04-18T12:23:23Z</time></trkpt><trkpt lat="43.34452634136209" lon="10.753453105639545"><ele>56.2</ele><time>2026-04-18T12:23:29Z</time></trkpt><trkpt lat="43.344472290292266" lon="10.753396965030282"><ele>56.6</ele><time>2026-04-18T12:23:35Z</time></trkpt><trkpt lat="43.344418424684825" lon="10.753344642735279"><ele>57.0</ele><time>2026-04-18T12:23:43Z</time></trkpt><trkpt lat="43.35680225207409" lon="10.792422217917244"><ele>63.0</ele><time>2026-04-18T12:38:09Z</time></trkpt><trkpt lat="43.35714806716449" lon="10.798599065186854"><ele>65.0</ele><time>2026-04-18T12:38:34.999Z</time></trkpt><trkpt lat="43.359415051371556" lon="10.804047022880345"><ele>71.0</ele><time>2026-04-18T12:39:01.999Z</time></trkpt><trkpt lat="43.36033992055632" lon="10.810265989832134"><ele>79.0</ele><time>2026-04-18T12:39:33Z</time></trkpt><trkpt lat="43.36458250683335" lon="10.812352605981898"><ele>86.0</ele><time>2026-04-18T12:40:45.999Z</time></trkpt><trkpt lat="43.36648045652075" lon="10.809620177369833"><ele>71.0</ele><time>2026-04-18T12:41:09Z</time></trkpt><trkpt lat="43.369267356350164" lon="10.806363459230015"><ele>74.0</ele><time>2026-04-18T12:41:33Z</time></trkpt><trkpt lat="43.37314684052647" lon="10.802993995645876"><ele>76.0</ele><time>2026-04-18T12:41:59Z</time></trkpt><trkpt lat="43.37730967587074" lon="10.80044753161164"><ele>82.0</ele><time>2026-04-18T12:42:25.999Z</time></trkpt><trkpt lat="43.38177209926167" lon="10.799137297560574"><ele>85.0</ele><time>2026-04-18T12:42:55Z</time></trkpt><trkpt lat="43.38544798526823" lon="10.795193483981109"><ele>99.0</ele><time>2026-04-18T12:43:22Z</time></trkpt><trkpt lat="43.38986804700561" lon="10.796412620968127"><ele>111.0</ele><time>2026-04-18T12:43:56Z</time></trkpt><trkpt lat="43.392971716848464" lon="10.793737705187572"><ele>136.0</ele><time>2026-04-18T12:44:23Z</time></trkpt><trkpt lat="43.39655181628072" lon="10.792438669139242"><ele>141.0</ele><time>2026-04-18T12:44:50Z</time></trkpt><trkpt lat="43.40020832627579" lon="10.79174773319633"><ele>175.0</ele><time>2026-04-18T12:45:19Z</time></trkpt><trkpt lat="43.40282732110428" lon="10.78822211314953"><ele>164.0</ele><time>2026-04-18T12:46:03Z</time></trkpt><trkpt lat="43.40217246123679" lon="10.78450853865397"><ele>166.0</ele><time>2026-04-18T12:46:25Z</time></trkpt><trkpt lat="43.40206906953713" lon="10.779473809795375"><ele>158.0</ele><time>2026-04-18T12:46:51Z</time></trkpt><trkpt lat="43.40352304900614" lon="10.774940136133463"><ele>142.0</ele><time>2026-04-18T12:47:21Z</time></trkpt><trkpt lat="43.40808562504167" lon="10.775414946106551"><ele>139.0</ele><time>2026-04-18T12:47:49Z</time></trkpt><trkpt lat="43.4123847744815" lon="10.77331561073948"><ele>132.0</ele><time>2026-04-18T12:48:25Z</time></trkpt><trkpt lat="43.415974649239125" lon="10.773752828588037"><ele>130.0</ele><time>2026-04-18T12:48:52Z</time></trkpt><trkpt lat="43.419629405764496" lon="10.773529868335137"><ele>125.0</ele><time>2026-04-18T12:49:17Z</time></trkpt><trkpt lat="43.42387461881109" lon="10.77136390551854"><ele>129.0</ele><time>2026-04-18T12:50:36Z</time></trkpt><trkpt lat="43.42535843849572" lon="10.766809669823454"><ele>157.0</ele><time>2026-04-18T12:51:08Z</time></trkpt><trkpt lat="43.42742556687047" lon="10.762762418598454"><ele>152.0</ele><time>2026-04-18T12:51:41Z</time></trkpt><trkpt lat="43.42905188071883" lon="10.759611038579234"><ele>138.0</ele><time>2026-04-18T12:52:07Z</time></trkpt><trkpt lat="43.432664773088234" lon="10.759351775909458"><ele>131.0</ele><time>2026-04-18T12:52:31Z</time></trkpt><trkpt lat="43.43577371355541" lon="10.763847424992301"><ele>123.0</ele><time>2026-04-18T12:52:57Z</time></trkpt><trkpt lat="43.43854499742013" lon="10.768999747272915"><ele>115.0</ele><time>2026-04-18T12:53:23Z</time></trkpt><trkpt lat="43.44251248763509" lon="10.772336637578356"><ele>109.0</ele><time>2026-04-18T12:53:49Z</time></trkpt><trkpt lat="43.44716384404627" lon="10.772400461457108"><ele>99.0</ele><time>2026-04-18T12:54:14Z</time></trkpt><trkpt lat="43.45132924634693" lon="10.769858607899339"><ele>95.0</ele><time>2026-04-18T12:54:51Z</time></trkpt><trkpt lat="43.455393551437545" lon="10.767101934287142"><ele>91.0</ele><time>2026-04-18T12:55:16Z</time></trkpt><trkpt lat="43.45850395427694" lon="10.7625480260784"><ele>88.0</ele><time>2026-04-18T12:55:45Z</time></trkpt><trkpt lat="43.461863127711595" lon="10.760757278449846"><ele>81.0</ele><time>2026-04-18T12:56:21Z</time></trkpt><trkpt lat="43.46559985422399" lon="10.760460983476648"><ele>84.0</ele><time>2026-04-18T12:56:46Z</time></trkpt><trkpt lat="43.46920835748066" lon="10.7615262612806"><ele>81.0</ele><time>2026-04-18T12:57:10Z</time></trkpt><trkpt lat="43.47258544980023" lon="10.763264173808036"><ele>78.0</ele><time>2026-04-18T12:57:32Z</time></trkpt><trkpt lat="43.476775210261195" lon="10.760964963434313"><ele>74.0</ele><time>2026-04-18T12:58:07Z</time></trkpt><trkpt lat="43.47822015147203" lon="10.756342551041964"><ele>75.0</ele><time>2026-04-18T12:58:31Z</time></trkpt><trkpt lat="43.481245158450776" lon="10.751598099909463"><ele>67.0</ele><time>2026-04-18T12:58:56Z</time></trkpt><trkpt lat="43.484999668265196" lon="10.747852752449129"><ele>71.0</ele><time>2026-04-18T12:59:20Z</time></trkpt><trkpt lat="43.48823338590829" lon="10.743248664170359"><ele>70.0</ele><time>2026-04-18T12:59:44Z</time></trkpt><trkpt lat="43.49173718514389" lon="10.739226540863903"><ele>68.0</ele><time>2026-04-18T13:00:07Z</time></trkpt><trkpt lat="43.49885128367408" lon="10.73318214024844"><ele>76.0</ele><time>2026-04-18T13:10:24Z</time></trkpt><trkpt lat="43.498774168391776" lon="10.72559040345563"><ele>66.0</ele><time>2026-04-18T13:11:05Z</time></trkpt><trkpt lat="43.49896077488705" lon="10.720523687873845"><ele>87.0</ele><time>2026-04-18T13:11:38Z</time></trkpt><trkpt lat="43.49738524851369" lon="10.716051412391783"><ele>81.0</ele><time>2026-04-18T13:12:02Z</time></trkpt><trkpt lat="43.49321683643746" lon="10.713352136666712"><ele>83.0</ele><time>2026-04-18T13:12:31Z</time></trkpt><trkpt lat="43.489810127737215" lon="10.709087013329517"><ele>87.0</ele><time>2026-04-18T13:12:58Z</time></trkpt><trkpt lat="43.48457986383622" lon="10.706749565780628"><ele>88.0</ele><time>2026-04-18T13:13:29Z</time></trkpt><trkpt lat="43.480974952438636" lon="10.702937294774227"><ele>94.0</ele><time>2026-04-18T13:13:53Z</time></trkpt><trkpt lat="43.477670190531356" lon="10.698739545857496"><ele>105.0</ele><time>2026-04-18T13:14:21Z</time></trkpt><trkpt lat="43.47919325507064" lon="10.695480670988475"><ele>109.0</ele><time>2026-04-18T13:14:46Z</time></trkpt><trkpt lat="43.4812018597212" lon="10.69137632860772"><ele>115.0</ele><time>2026-04-18T13:15:10Z</time></trkpt><trkpt lat="43.481682881077454" lon="10.68521262796532"><ele>121.0</ele><time>2026-04-18T13:15:39Z</time></trkpt><trkpt lat="43.48129820461272" lon="10.6802228840629"><ele>137.0</ele><time>2026-04-18T13:16:03Z</time></trkpt><trkpt lat="43.48229292096605" lon="10.674146660777955"><ele>114.0</ele><time>2026-04-18T13:16:31Z</time></trkpt><trkpt lat="43.484647526423814" lon="10.67037176800063"><ele>109.0</ele><time>2026-04-18T13:17:02Z</time></trkpt><trkpt lat="43.48781889185839" lon="10.66798494642864"><ele>105.0</ele><time>2026-04-18T13:17:34Z</time></trkpt><trkpt lat="43.49139556823369" lon="10.666872294189963"><ele>99.0</ele><time>2026-04-18T13:17:59Z</time></trkpt><trkpt lat="43.494457995325064" lon="10.664262925480918"><ele>93.0</ele><time>2026-04-18T13:18:27Z</time></trkpt><trkpt lat="43.49810921890811" lon="10.663830825873907"><ele>88.0</ele><time>2026-04-18T13:18:53Z</time></trkpt><trkpt lat="43.50165439541227" lon="10.66260213505957"><ele>80.0</ele><time>2026-04-18T13:19:15Z</time></trkpt><trkpt lat="43.50586514384769" lon="10.660253335486694"><ele>76.0</ele><time>2026-04-18T13:19:41Z</time></trkpt><trkpt lat="43.50887890193081" lon="10.657216526221069"><ele>86.0</ele><time>2026-04-18T13:20:03Z</time></trkpt><trkpt lat="43.51181475188039" lon="10.652422053772966"><ele>103.0</ele><time>2026-04-18T13:20:52Z</time></trkpt><trkpt lat="43.50999486732914" lon="10.647955732478652"><ele>111.0</ele><time>2026-04-18T13:21:15Z</time></trkpt><trkpt lat="43.507701685872405" lon="10.642489876536374"><ele>149.0</ele><time>2026-04-18T13:21:40Z</time></trkpt><trkpt lat="43.503802516879645" lon="10.639390071474027"><ele>153.0</ele><time>2026-04-18T13:22:18Z</time></trkpt><trkpt lat="43.5051994510218" lon="10.634728592095225"><ele>143.0</ele><time>2026-04-18T13:23:42Z</time></trkpt><trkpt lat="43.508773769546785" lon="10.633948413168504"><ele>131.0</ele><time>2026-04-18T13:24:32Z</time></trkpt><trkpt lat="43.512118645048275" lon="10.631901930630857"><ele>147.0</ele><time>2026-04-18T13:25:16Z</time></trkpt><trkpt lat="43.51553861745522" lon="10.630097512481266"><ele>159.0</ele><time>2026-04-18T13:25:56Z</time></trkpt><trkpt lat="43.51748752709146" lon="10.627412039794205"><ele>203.0</ele><time>2026-04-18T13:26:18Z</time></trkpt><trkpt lat="43.51653612001586" lon="10.622546713975206"><ele>246.0</ele><time>2026-04-18T13:27:12Z</time></trkpt><trkpt lat="43.51360481015682" lon="10.619477840301334"><ele>283.0</ele><time>2026-04-18T13:27:52Z</time></trkpt><trkpt lat="43.510053686735574" lon="10.618545535120932"><ele>279.0</ele><time>2026-04-18T13:28:23Z</time></trkpt><trkpt lat="43.507288241927824" lon="10.618774223509492"><ele>309.0</ele><time>2026-04-18T13:29:15Z</time></trkpt><trkpt lat="43.50475674649686" lon="10.620079331797701"><ele>306.5</ele><time>2026-04-18T13:29:56Z</time></trkpt><trkpt lat="43.504628697307254" lon="10.620346116373813"><ele>304.0</ele><time>2026-04-18T15:34:39.885Z</time></trkpt><trkpt lat="43.505253593474684" lon="10.621308529061393"><ele>313.0</ele><time>2026-04-18T15:49:56.712Z</time></trkpt><trkpt lat="43.502604337361205" lon="10.619158304557336"><ele>324.0</ele><time>2026-04-18T17:24:13.049Z</time></trkpt><trkpt lat="43.50489755987297" lon="10.61776615400961"><ele>304.0</ele><time>2026-04-19T06:18:29.978Z</time></trkpt><trkpt lat="43.50485463368734" lon="10.62037120646221"><ele>304.0</ele><time>2026-04-19T06:49:07.923Z</time></trkpt></trkseg></trk></gpx>